Port Dufferin, Canada
Current Conditions -  °F | °C
As of 2:00 PM on Friday 28 Nov 2014 (Local Time) from CYHZ Reporting Station
Snow Showers Snow Showers  
Wind Chill: 17°   Ceiling: 2000
Heat Index: 27°   Visibility: 4mi
Dew Point: 25°   Wind: 10mph
Humidity: 93%   Direction: 350°N
Pressure: 29.87"   Gusts: NA
Location:  44.92°N, 62.38°W
Report Text: CYHZ 281800Z 35009KT 4SM -SHSN SCT009 OVC020 M03/M04 A2987 RMK SF3SC5 SLP123
Loading
Personal Weather Stations






























Interactive Weather Map New forecast layout! Learn more

10-Day Weather Forecast

Advertisements
Track Severe Weather on mobile